sensor_id;sensor_type;location;lat;lon;timestamp;pressure;altitude;pressure_sealevel;temperature;humidity
54870;BME280;40756;-37.950;145.008;2024-02-23T00:00:06;100949.42;;;18.68;37.03
54870;BME280;40756;-37.950;145.008;2024-02-23T00:02:35;100955.69;;;18.89;37.46
54870;BME280;40756;-37.950;145.008;2024-02-23T00:05:05;100960.27;;;19.76;37.79
54870;BME280;40756;-37.950;145.008;2024-02-23T00:07:34;100960.75;;;19.57;39.45
54870;BME280;40756;-37.950;145.008;2024-02-23T00:10:04;100964.21;;;18.67;39.77
54870;BME280;40756;-37.950;145.008;2024-02-23T00:12:34;100975.40;;;19.33;39.45
54870;BME280;40756;-37.950;145.008;2024-02-23T00:15:04;100970.54;;;19.11;40.50
54870;BME280;40756;-37.950;145.008;2024-02-23T00:17:33;100972.18;;;18.89;37.46
54870;BME280;40756;-37.950;145.008;2024-02-23T00:20:03;100978.04;;;19.33;37.60
54870;BME280;40756;-37.950;145.008;2024-02-23T00:22:34;100978.89;;;19.40;37.92
54870;BME280;40756;-37.950;145.008;2024-02-23T00:25:04;100975.48;;;19.18;38.74
54870;BME280;40756;-37.950;145.008;2024-02-23T00:27:33;100978.68;;;19.13;38.60
54870;BME280;40756;-37.950;145.008;2024-02-23T00:30:03;100975.61;;;19.44;37.53
54870;BME280;40756;-37.950;145.008;2024-02-23T00:32:32;100985.48;;;18.85;38.42
54870;BME280;40756;-37.950;145.008;2024-02-23T00:35:01;100986.96;;;18.75;39.79
54870;BME280;40756;-37.950;145.008;2024-02-23T00:37:31;100990.53;;;17.93;40.62
54870;BME280;40756;-37.950;145.008;2024-02-23T00:40:01;100991.91;;;19.44;39.39
54870;BME280;40756;-37.950;145.008;2024-02-23T00:42:30;100987.11;;;18.62;37.08
54870;BME280;40756;-37.950;145.008;2024-02-23T00:45:00;100988.75;;;19.27;35.35
54870;BME280;40756;-37.950;145.008;2024-02-23T00:47:29;100982.40;;;19.21;35.30
54870;BME280;40756;-37.950;145.008;2024-02-23T00:49:59;100981.49;;;19.75;35.55
54870;BME280;40756;-37.950;145.008;2024-02-23T00:52:28;100982.10;;;19.51;35.87
54870;BME280;40756;-37.950;145.008;2024-02-23T00:54:59;100987.69;;;18.63;36.18
54870;BME280;40756;-37.950;145.008;2024-02-23T00:57:28;100990.51;;;19.32;35.38
54870;BME280;40756;-37.950;145.008;2024-02-23T00:59:58;100989.55;;;18.67;36.11
54870;BME280;40756;-37.950;145.008;2024-02-23T01:02:28;100987.63;;;19.62;36.19
54870;BME280;40756;-37.950;145.008;2024-02-23T01:04:58;100991.68;;;19.71;35.26
54870;BME280;40756;-37.950;145.008;2024-02-23T01:07:27;100986.73;;;19.86;35.33
54870;BME280;40756;-37.950;145.008;2024-02-23T01:09:57;100987.75;;;19.64;35.03
54870;BME280;40756;-37.950;145.008;2024-02-23T01:12:26;100990.04;;;20.39;34.87
54870;BME280;40756;-37.950;145.008;2024-02-23T01:14:56;100988.42;;;20.66;33.89
54870;BME280;40756;-37.950;145.008;2024-02-23T01:17:25;100990.55;;;20.47;33.87
54870;BME280;40756;-37.950;145.008;2024-02-23T01:19:54;100993.77;;;20.05;33.79
54870;BME280;40756;-37.950;145.008;2024-02-23T01:22:24;100997.17;;;20.84;33.90
54870;BME280;40756;-37.950;145.008;2024-02-23T01:24:54;100989.67;;;21.09;33.94
54870;BME280;40756;-37.950;145.008;2024-02-23T01:27:23;100993.14;;;21.37;32.07
54870;BME280;40756;-37.950;145.008;2024-02-23T01:29:52;100992.42;;;22.10;31.00
54870;BME280;40756;-37.950;145.008;2024-02-23T01:32:23;100991.76;;;22.43;30.71
54870;BME280;40756;-37.950;145.008;2024-02-23T01:34:52;100993.47;;;21.65;30.48
54870;BME280;40756;-37.950;145.008;2024-02-23T01:37:21;100995.70;;;20.84;32.15
54870;BME280;40756;-37.950;145.008;2024-02-23T01:39:51;100999.52;;;21.28;32.51
54870;BME280;40756;-37.950;145.008;2024-02-23T01:42:21;100989.31;;;22.04;32.06
54870;BME280;40756;-37.950;145.008;2024-02-23T01:44:51;100995.46;;;20.42;32.12
54870;BME280;40756;-37.950;145.008;2024-02-23T01:47:20;100992.26;;;20.89;31.71
54870;BME280;40756;-37.950;145.008;2024-02-23T01:49:50;100994.62;;;21.06;31.03
54870;BME280;40756;-37.950;145.008;2024-02-23T01:52:20;100990.95;;;22.29;31.27
54870;BME280;40756;-37.950;145.008;2024-02-23T01:54:49;100986.24;;;21.74;32.65
54870;BME280;40756;-37.950;145.008;2024-02-23T01:57:19;100992.62;;;21.98;32.67
54870;BME280;40756;-37.950;145.008;2024-02-23T01:59:49;100997.61;;;21.63;32.70
54870;BME280;40756;-37.950;145.008;2024-02-23T02:02:19;100997.85;;;21.96;33.77
54870;BME280;40756;-37.950;145.008;2024-02-23T02:04:49;100999.05;;;21.09;34.27
54870;BME280;40756;-37.950;145.008;2024-02-23T02:07:19;100996.18;;;21.40;33.84
54870;BME280;40756;-37.950;145.008;2024-02-23T02:09:48;100994.29;;;22.21;33.25
54870;BME280;40756;-37.950;145.008;2024-02-23T02:12:28;100998.67;;;21.87;34.77
54870;BME280;40756;-37.950;145.008;2024-02-23T02:14:57;100997.44;;;22.03;34.55
54870;BME280;40756;-37.950;145.008;2024-02-23T02:17:27;101006.17;;;21.69;35.90
54870;BME280;40756;-37.950;145.008;2024-02-23T02:19:56;101011.18;;;21.77;35.89
54870;BME280;40756;-37.950;145.008;2024-02-23T02:22:27;101014.61;;;21.24;36.04
54870;BME280;40756;-37.950;145.008;2024-02-23T02:24:57;101017.52;;;20.41;36.67
54870;BME280;40756;-37.950;145.008;2024-02-23T02:27:26;101009.73;;;20.46;37.31
54870;BME280;40756;-37.950;145.008;2024-02-23T02:29:56;101010.34;;;20.66;36.56
54870;BME280;40756;-37.950;145.008;2024-02-23T02:32:25;101018.47;;;20.17;37.81
54870;BME280;40756;-37.950;145.008;2024-02-23T02:34:54;101021.76;;;20.18;37.48
54870;BME280;40756;-37.950;145.008;2024-02-23T02:37:23;101023.81;;;20.66;37.01
54870;BME280;40756;-37.950;145.008;2024-02-23T02:39:53;101022.10;;;20.60;35.80
54870;BME280;40756;-37.950;145.008;2024-02-23T02:42:23;101025.26;;;20.99;36.24
54870;BME280;40756;-37.950;145.008;2024-02-23T02:44:52;101033.68;;;20.39;37.00
54870;BME280;40756;-37.950;145.008;2024-02-23T02:47:22;101024.22;;;21.00;36.05
54870;BME280;40756;-37.950;145.008;2024-02-23T02:49:52;101031.40;;;19.43;38.44
54870;BME280;40756;-37.950;145.008;2024-02-23T02:52:21;101031.89;;;19.98;38.91
54870;BME280;40756;-37.950;145.008;2024-02-23T02:54:50;101039.36;;;19.82;38.04
54870;BME280;40756;-37.950;145.008;2024-02-23T02:57:20;101037.53;;;19.71;37.42
54870;BME280;40756;-37.950;145.008;2024-02-23T02:59:49;101038.68;;;20.32;37.03
54870;BME280;40756;-37.950;145.008;2024-02-23T03:02:19;101044.95;;;20.14;37.03
54870;BME280;40756;-37.950;145.008;2024-02-23T03:04:50;101044.48;;;20.08;37.09
54870;BME280;40756;-37.950;145.008;2024-02-23T03:07:20;101048.97;;;19.46;37.39
54870;BME280;40756;-37.950;145.008;2024-02-23T03:09:49;101051.02;;;20.04;36.98
54870;BME280;40756;-37.950;145.008;2024-02-23T03:12:19;101052.26;;;20.06;37.27
54870;BME280;40756;-37.950;145.008;2024-02-23T03:14:48;101052.83;;;20.14;37.42
54870;BME280;40756;-37.950;145.008;2024-02-23T03:17:23;101057.82;;;18.95;39.09
54870;BME280;40756;-37.950;145.008;2024-02-23T03:19:52;101051.12;;;20.34;36.38
54870;BME280;40756;-37.950;145.008;2024-02-23T03:22:22;101047.10;;;20.87;35.89
54870;BME280;40756;-37.950;145.008;2024-02-23T03:24:51;101048.31;;;19.77;36.30
54870;BME280;40756;-37.950;145.008;2024-02-23T03:27:21;101054.37;;;20.96;35.60
54870;BME280;40756;-37.950;145.008;2024-02-23T03:29:56;101052.79;;;20.68;35.12
54870;BME280;40756;-37.950;145.008;2024-02-23T03:32:26;101051.12;;;20.47;35.05
54870;BME280;40756;-37.950;145.008;2024-02-23T03:34:55;101046.30;;;21.17;34.99
54870;BME280;40756;-37.950;145.008;2024-02-23T03:37:25;101048.58;;;20.60;35.55
54870;BME280;40756;-37.950;145.008;2024-02-23T03:39:54;101042.42;;;19.65;36.98
54870;BME280;40756;-37.950;145.008;2024-02-23T03:42:24;101048.11;;;20.19;37.25
54870;BME280;40756;-37.950;145.008;2024-02-23T03:44:53;101053.81;;;19.99;38.45
54870;BME280;40756;-37.950;145.008;2024-02-23T03:47:23;101052.69;;;20.43;39.50
54870;BME280;40756;-37.950;145.008;2024-02-23T03:49:52;101053.18;;;20.29;39.82
54870;BME280;40756;-37.950;145.008;2024-02-23T03:52:22;101057.26;;;20.30;39.43
54870;BME280;40756;-37.950;145.008;2024-02-23T03:54:51;101057.91;;;19.69;40.65
54870;BME280;40756;-37.950;145.008;2024-02-23T03:57:21;101064.70;;;19.56;41.82
54870;BME280;40756;-37.950;145.008;2024-02-23T03:59:55;101060.24;;;20.10;40.10
54870;BME280;40756;-37.950;145.008;2024-02-23T04:02:24;101064.64;;;19.46;41.10
54870;BME280;40756;-37.950;145.008;2024-02-23T04:04:55;101063.21;;;19.90;41.14
54870;BME280;40756;-37.950;145.008;2024-02-23T04:07:24;101071.09;;;20.30;39.90
54870;BME280;40756;-37.950;145.008;2024-02-23T04:09:53;101073.04;;;19.91;41.04
54870;BME280;40756;-37.950;145.008;2024-02-23T04:12:23;101068.83;;;19.92;41.40
54870;BME280;40756;-37.950;145.008;2024-02-23T04:14:52;101073.96;;;19.18;42.18
54870;BME280;40756;-37.950;145.008;2024-02-23T04:17:22;101075.52;;;19.55;41.74
54870;BME280;40756;-37.950;145.008;2024-02-23T04:19:51;101070.83;;;19.50;41.28
54870;BME280;40756;-37.950;145.008;2024-02-23T04:22:21;101071.89;;;18.24;43.40
54870;BME280;40756;-37.950;145.008;2024-02-23T04:24:51;101072.18;;;19.80;41.42
54870;BME280;40756;-37.950;145.008;2024-02-23T04:27:20;101072.31;;;19.83;41.27
54870;BME280;40756;-37.950;145.008;2024-02-23T04:29:49;101080.47;;;20.74;41.53
54870;BME280;40756;-37.950;145.008;2024-02-23T04:32:19;101085.15;;;20.46;41.91
54870;BME280;40756;-37.950;145.008;2024-02-23T04:34:48;101082.07;;;20.20;41.23
54870;BME280;40756;-37.950;145.008;2024-02-23T04:37:18;101085.17;;;19.48;42.10
54870;BME280;40756;-37.950;145.008;2024-02-23T04:39:47;101080.24;;;19.80;41.98
54870;BME280;40756;-37.950;145.008;2024-02-23T04:42:17;101086.62;;;19.55;41.26
54870;BME280;40756;-37.950;145.008;2024-02-23T04:44:46;101083.58;;;19.45;41.80
54870;BME280;40756;-37.950;145.008;2024-02-23T04:47:16;101090.98;;;19.74;42.63
54870;BME280;40756;-37.950;145.008;2024-02-23T04:49:45;101095.64;;;19.61;42.97
54870;BME280;40756;-37.950;145.008;2024-02-23T04:52:15;101099.84;;;19.29;43.52
54870;BME280;40756;-37.950;145.008;2024-02-23T04:54:45;101104.39;;;19.39;43.00
54870;BME280;40756;-37.950;145.008;2024-02-23T04:57:14;101102.38;;;18.05;43.74
54870;BME280;40756;-37.950;145.008;2024-02-23T04:59:43;101105.87;;;18.98;42.97
54870;BME280;40756;-37.950;145.008;2024-02-23T05:02:13;101106.51;;;18.61;43.25
54870;BME280;40756;-37.950;145.008;2024-02-23T05:04:42;101108.05;;;18.08;44.91
54870;BME280;40756;-37.950;145.008;2024-02-23T05:07:12;101111.48;;;17.89;46.57
54870;BME280;40756;-37.950;145.008;2024-02-23T05:09:42;101112.45;;;18.27;45.75
54870;BME280;40756;-37.950;145.008;2024-02-23T05:12:11;101109.14;;;18.36;45.59
54870;BME280;40756;-37.950;145.008;2024-02-23T05:14:41;101114.84;;;19.29;44.21
54870;BME280;40756;-37.950;145.008;2024-02-23T05:17:10;101111.13;;;18.73;43.89
54870;BME280;40756;-37.950;145.008;2024-02-23T05:19:40;101116.07;;;18.72;44.45
54870;BME280;40756;-37.950;145.008;2024-02-23T05:22:10;101113.88;;;18.69;43.14
54870;BME280;40756;-37.950;145.008;2024-02-23T05:24:39;101117.02;;;18.61;45.75
54870;BME280;40756;-37.950;145.008;2024-02-23T05:27:09;101109.97;;;18.48;44.94
54870;BME280;40756;-37.950;145.008;2024-02-23T05:29:38;101113.04;;;19.13;43.02
54870;BME280;40756;-37.950;145.008;2024-02-23T05:32:08;101109.28;;;19.13;42.17
54870;BME280;40756;-37.950;145.008;2024-02-23T05:34:37;101111.64;;;19.52;41.76
54870;BME280;40756;-37.950;145.008;2024-02-23T05:37:08;101113.17;;;18.94;41.90
54870;BME280;40756;-37.950;145.008;2024-02-23T05:39:37;101116.23;;;19.41;41.25
54870;BME280;40756;-37.950;145.008;2024-02-23T05:42:07;101109.88;;;19.32;42.35
54870;BME280;40756;-37.950;145.008;2024-02-23T05:44:36;101121.03;;;20.56;40.01
54870;BME280;40756;-37.950;145.008;2024-02-23T05:47:06;101115.44;;;20.73;39.42
54870;BME280;40756;-37.950;145.008;2024-02-23T05:49:36;101126.55;;;19.69;41.13
54870;BME280;40756;-37.950;145.008;2024-02-23T05:52:05;101128.32;;;19.97;41.16
54870;BME280;40756;-37.950;145.008;2024-02-23T05:54:34;101127.26;;;19.27;40.87
54870;BME280;40756;-37.950;145.008;2024-02-23T05:57:04;101126.67;;;19.59;41.99
54870;BME280;40756;-37.950;145.008;2024-02-23T05:59:33;101127.53;;;19.93;39.32
54870;BME280;40756;-37.950;145.008;2024-02-23T06:02:03;101131.68;;;19.72;39.79
54870;BME280;40756;-37.950;145.008;2024-02-23T06:04:33;101123.11;;;19.95;39.18
54870;BME280;40756;-37.950;145.008;2024-02-23T06:07:03;101123.97;;;19.21;39.60
54870;BME280;40756;-37.950;145.008;2024-02-23T06:09:33;101127.43;;;18.94;40.87
54870;BME280;40756;-37.950;145.008;2024-02-23T06:12:02;101129.33;;;19.68;40.28
54870;BME280;40756;-37.950;145.008;2024-02-23T06:14:32;101131.04;;;18.76;41.33
54870;BME280;40756;-37.950;145.008;2024-02-23T06:17:02;101132.24;;;19.63;39.54
54870;BME280;40756;-37.950;145.008;2024-02-23T06:19:31;101133.62;;;20.00;40.22
54870;BME280;40756;-37.950;145.008;2024-02-23T06:22:01;101138.47;;;19.37;40.81
54870;BME280;40756;-37.950;145.008;2024-02-23T06:24:30;101138.78;;;19.90;39.94
54870;BME280;40756;-37.950;145.008;2024-02-23T06:27:00;101147.57;;;18.72;40.58
54870;BME280;40756;-37.950;145.008;2024-02-23T06:29:29;101142.65;;;19.35;39.85
54870;BME280;40756;-37.950;145.008;2024-02-23T06:31:59;101143.23;;;18.69;40.36
54870;BME280;40756;-37.950;145.008;2024-02-23T06:34:28;101141.64;;;19.52;39.23
54870;BME280;40756;-37.950;145.008;2024-02-23T06:36:58;101149.38;;;19.15;39.55
54870;BME280;40756;-37.950;145.008;2024-02-23T06:39:27;101152.43;;;19.02;39.65
54870;BME280;40756;-37.950;145.008;2024-02-23T06:41:57;101153.99;;;19.08;39.14
54870;BME280;40756;-37.950;145.008;2024-02-23T06:44:26;101155.93;;;18.10;40.31
54870;BME280;40756;-37.950;145.008;2024-02-23T06:46:56;101158.29;;;19.03;39.36
54870;BME280;40756;-37.950;145.008;2024-02-23T06:49:25;101161.16;;;19.21;38.87
54870;BME280;40756;-37.950;145.008;2024-02-23T06:51:55;101168.45;;;19.80;37.36
54870;BME280;40756;-37.950;145.008;2024-02-23T06:54:24;101165.26;;;19.47;38.36
54870;BME280;40756;-37.950;145.008;2024-02-23T06:56:54;101165.25;;;18.82;39.93
54870;BME280;40756;-37.950;145.008;2024-02-23T06:59:23;101164.56;;;18.60;40.08
54870;BME280;40756;-37.950;145.008;2024-02-23T07:01:53;101167.03;;;18.95;39.35
54870;BME280;40756;-37.950;145.008;2024-02-23T07:04:23;101168.62;;;18.43;39.70
54870;BME280;40756;-37.950;145.008;2024-02-23T07:06:52;101178.11;;;19.00;39.53
54870;BME280;40756;-37.950;145.008;2024-02-23T07:09:22;101175.08;;;19.44;38.29
54870;BME280;40756;-37.950;145.008;2024-02-23T07:11:52;101179.99;;;18.53;39.92
54870;BME280;40756;-37.950;145.008;2024-02-23T07:14:22;101184.24;;;18.65;40.02
54870;BME280;40756;-37.950;145.008;2024-02-23T07:16:52;101183.53;;;18.59;40.35
54870;BME280;40756;-37.950;145.008;2024-02-23T07:19:21;101193.80;;;19.10;40.72
54870;BME280;40756;-37.950;145.008;2024-02-23T07:21:50;101197.65;;;18.42;41.63
54870;BME280;40756;-37.950;145.008;2024-02-23T07:24:20;101201.12;;;18.95;42.29
54870;BME280;40756;-37.950;145.008;2024-02-23T07:26:49;101209.22;;;18.66;41.38
54870;BME280;40756;-37.950;145.008;2024-02-23T07:29:19;101212.12;;;18.69;41.32
54870;BME280;40756;-37.950;145.008;2024-02-23T07:31:48;101218.74;;;18.54;41.85
54870;BME280;40756;-37.950;145.008;2024-02-23T07:34:18;101222.13;;;18.16;42.29
54870;BME280;40756;-37.950;145.008;2024-02-23T07:36:51;101234.80;;;18.10;43.39
54870;BME280;40756;-37.950;145.008;2024-02-23T07:39:20;101237.14;;;17.07;45.50
54870;BME280;40756;-37.950;145.008;2024-02-23T07:41:50;101236.80;;;17.58;45.92
54870;BME280;40756;-37.950;145.008;2024-02-23T07:44:19;101241.96;;;17.51;45.77
54870;BME280;40756;-37.950;145.008;2024-02-23T07:46:48;101246.17;;;18.11;44.12
54870;BME280;40756;-37.950;145.008;2024-02-23T07:49:18;101245.63;;;16.97;45.35
54870;BME280;40756;-37.950;145.008;2024-02-23T07:51:47;101246.69;;;17.93;44.49
54870;BME280;40756;-37.950;145.008;2024-02-23T07:54:17;101254.30;;;17.76;43.43
54870;BME280;40756;-37.950;145.008;2024-02-23T07:56:47;101257.66;;;16.99;44.26
54870;BME280;40756;-37.950;145.008;2024-02-23T07:59:16;101259.18;;;17.10;43.79
54870;BME280;40756;-37.950;145.008;2024-02-23T08:01:46;101264.70;;;18.04;43.08
54870;BME280;40756;-37.950;145.008;2024-02-23T08:04:15;101265.56;;;18.45;42.86
54870;BME280;40756;-37.950;145.008;2024-02-23T08:06:45;101272.23;;;17.67;43.53
54870;BME280;40756;-37.950;145.008;2024-02-23T08:09:15;101277.15;;;17.20;43.55
54870;BME280;40756;-37.950;145.008;2024-02-23T08:11:44;101280.19;;;17.60;44.60
54870;BME280;40756;-37.950;145.008;2024-02-23T08:14:14;101287.35;;;17.96;43.41
54870;BME280;40756;-37.950;145.008;2024-02-23T08:16:44;101285.10;;;18.08;43.70
54870;BME280;40756;-37.950;145.008;2024-02-23T08:19:14;101289.53;;;17.98;43.07
54870;BME280;40756;-37.950;145.008;2024-02-23T08:21:43;101297.20;;;17.73;44.78
54870;BME280;40756;-37.950;145.008;2024-02-23T08:24:13;101298.49;;;17.62;44.75
54870;BME280;40756;-37.950;145.008;2024-02-23T08:26:42;101303.59;;;16.90;44.88
54870;BME280;40756;-37.950;145.008;2024-02-23T08:29:12;101316.92;;;17.68;43.77
54870;BME280;40756;-37.950;145.008;2024-02-23T08:31:42;101313.42;;;17.43;43.84
54870;BME280;40756;-37.950;145.008;2024-02-23T08:34:11;101319.18;;;17.63;43.39
54870;BME280;40756;-37.950;145.008;2024-02-23T08:36:41;101322.43;;;17.71;43.55
54870;BME280;40756;-37.950;145.008;2024-02-23T08:39:10;101325.18;;;17.17;44.47
54870;BME280;40756;-37.950;145.008;2024-02-23T08:41:40;101334.01;;;16.89;44.30
54870;BME280;40756;-37.950;145.008;2024-02-23T08:44:09;101336.98;;;18.08;43.09
54870;BME280;40756;-37.950;145.008;2024-02-23T08:46:39;101342.37;;;17.09;43.63
54870;BME280;40756;-37.950;145.008;2024-02-23T08:49:09;101348.11;;;15.84;44.95
54870;BME280;40756;-37.950;145.008;2024-02-23T08:51:38;101347.14;;;16.91;43.94
54870;BME280;40756;-37.950;145.008;2024-02-23T08:54:08;101349.38;;;16.81;44.43
54870;BME280;40756;-37.950;145.008;2024-02-23T08:56:39;101357.02;;;17.49;43.84
54870;BME280;40756;-37.950;145.008;2024-02-23T08:59:09;101354.79;;;16.81;43.39
54870;BME280;40756;-37.950;145.008;2024-02-23T09:01:38;101364.47;;;16.76;43.31
54870;BME280;40756;-37.950;145.008;2024-02-23T09:04:08;101371.59;;;17.13;43.06
54870;BME280;40756;-37.950;145.008;2024-02-23T09:06:37;101375.97;;;17.16;42.20
54870;BME280;40756;-37.950;145.008;2024-02-23T09:09:07;101376.10;;;17.64;42.19
54870;BME280;40756;-37.950;145.008;2024-02-23T09:11:36;101382.46;;;16.21;43.84
54870;BME280;40756;-37.950;145.008;2024-02-23T09:14:06;101376.45;;;16.74;42.24
54870;BME280;40756;-37.950;145.008;2024-02-23T09:16:36;101380.86;;;16.56;42.58
54870;BME280;40756;-37.950;145.008;2024-02-23T09:19:06;101383.89;;;16.03;41.76
54870;BME280;40756;-37.950;145.008;2024-02-23T09:21:36;101392.34;;;17.14;42.39
54870;BME280;40756;-37.950;145.008;2024-02-23T09:24:07;101388.03;;;16.90;42.38
54870;BME280;40756;-37.950;145.008;2024-02-23T09:26:37;101389.84;;;17.22;42.84
54870;BME280;40756;-37.950;145.008;2024-02-23T09:29:06;101397.17;;;16.64;43.21
54870;BME280;40756;-37.950;145.008;2024-02-23T09:31:36;101395.34;;;16.93;41.87
54870;BME280;40756;-37.950;145.008;2024-02-23T09:34:05;101394.92;;;17.00;41.79
54870;BME280;40756;-37.950;145.008;2024-02-23T09:36:35;101408.81;;;16.68;41.45
54870;BME280;40756;-37.950;145.008;2024-02-23T09:39:04;101409.37;;;16.91;41.46
54870;BME280;40756;-37.950;145.008;2024-02-23T09:41:34;101407.42;;;16.81;41.61
54870;BME280;40756;-37.950;145.008;2024-02-23T09:44:04;101414.77;;;16.73;42.36
54870;BME280;40756;-37.950;145.008;2024-02-23T09:46:33;101416.54;;;17.72;41.68
54870;BME280;40756;-37.950;145.008;2024-02-23T09:49:03;101421.67;;;17.08;42.16
54870;BME280;40756;-37.950;145.008;2024-02-23T09:51:35;101424.54;;;16.55;41.37
54870;BME280;40756;-37.950;145.008;2024-02-23T09:54:05;101433.00;;;16.94;42.80
54870;BME280;40756;-37.950;145.008;2024-02-23T09:56:35;101435.02;;;16.46;47.14
54870;BME280;40756;-37.950;145.008;2024-02-23T09:59:04;101441.90;;;17.03;47.27
54870;BME280;40756;-37.950;145.008;2024-02-23T10:01:34;101447.13;;;16.07;49.66
54870;BME280;40756;-37.950;145.008;2024-02-23T10:04:04;101446.23;;;15.81;49.46
54870;BME280;40756;-37.950;145.008;2024-02-23T10:06:33;101453.76;;;16.08;48.88
54870;BME280;40756;-37.950;145.008;2024-02-23T10:09:03;101455.55;;;16.61;48.30
54870;BME280;40756;-37.950;145.008;2024-02-23T10:11:33;101456.06;;;15.87;48.38
54870;BME280;40756;-37.950;145.008;2024-02-23T10:14:02;101460.29;;;15.95;47.54
54870;BME280;40756;-37.950;145.008;2024-02-23T10:16:31;101460.31;;;16.63;44.58
54870;BME280;40756;-37.950;145.008;2024-02-23T10:19:03;101468.56;;;17.30;42.57
54870;BME280;40756;-37.950;145.008;2024-02-23T10:21:34;101480.70;;;16.42;44.25
54870;BME280;40756;-37.950;145.008;2024-02-23T10:24:04;101480.64;;;16.96;43.33
54870;BME280;40756;-37.950;145.008;2024-02-23T10:26:33;101484.34;;;16.03;44.54
54870;BME280;40756;-37.950;145.008;2024-02-23T10:29:03;101484.67;;;16.50;44.48
54870;BME280;40756;-37.950;145.008;2024-02-23T10:31:35;101491.58;;;16.04;44.66
54870;BME280;40756;-37.950;145.008;2024-02-23T10:34:09;101496.35;;;15.97;50.34
54870;BME280;40756;-37.950;145.008;2024-02-23T10:36:41;101510.63;;;14.66;58.46
54870;BME280;40756;-37.950;145.008;2024-02-23T10:39:11;101509.93;;;15.55;58.00
54870;BME280;40756;-37.950;145.008;2024-02-23T10:41:47;101516.79;;;14.36;62.02
54870;BME280;40756;-37.950;145.008;2024-02-23T10:44:20;101525.11;;;14.03;62.87
54870;BME280;40756;-37.950;145.008;2024-02-23T10:46:51;101531.74;;;13.41;63.78
54870;BME280;40756;-37.950;145.008;2024-02-23T10:49:24;101525.27;;;13.88;63.22
54870;BME280;40756;-37.950;145.008;2024-02-23T10:51:55;101521.81;;;13.38;64.06
54870;BME280;40756;-37.950;145.008;2024-02-23T10:54:25;101518.88;;;14.21;60.91
54870;BME280;40756;-37.950;145.008;2024-02-23T10:56:55;101518.68;;;14.72;58.82
54870;BME280;40756;-37.950;145.008;2024-02-23T10:59:24;101515.74;;;15.45;57.39
54870;BME280;40756;-37.950;145.008;2024-02-23T11:01:55;101517.38;;;14.94;55.98
54870;BME280;40756;-37.950;145.008;2024-02-23T11:04:26;101510.57;;;15.97;54.00
54870;BME280;40756;-37.950;145.008;2024-02-23T11:06:57;101514.52;;;15.75;54.11
54870;BME280;40756;-37.950;145.008;2024-02-23T11:09:26;101512.33;;;15.96;52.74
54870;BME280;40756;-37.950;145.008;2024-02-23T11:11:56;101515.21;;;15.26;53.07
54870;BME280;40756;-37.950;145.008;2024-02-23T11:14:35;101515.01;;;15.94;51.34
54870;BME280;40756;-37.950;145.008;2024-02-23T11:17:05;101516.30;;;14.81;54.11
54870;BME280;40756;-37.950;145.008;2024-02-23T11:19:37;101513.39;;;16.40;51.33
54870;BME280;40756;-37.950;145.008;2024-02-23T11:22:10;101524.51;;;15.66;51.18
54870;BME280;40756;-37.950;145.008;2024-02-23T11:24:44;101530.89;;;15.30;51.90
54870;BME280;40756;-37.950;145.008;2024-02-23T11:27:15;101532.08;;;15.63;51.34
54870;BME280;40756;-37.950;145.008;2024-02-23T11:29:46;101533.89;;;16.51;50.38
54870;BME280;40756;-37.950;145.008;2024-02-23T11:32:16;101549.00;;;14.94;53.01
54870;BME280;40756;-37.950;145.008;2024-02-23T11:34:56;101559.89;;;14.48;57.84
54870;BME280;40756;-37.950;145.008;2024-02-23T11:37:29;101554.92;;;14.90;59.91
54870;BME280;40756;-37.950;145.008;2024-02-23T11:39:59;101556.87;;;13.72;62.28
54870;BME280;40756;-37.950;145.008;2024-02-23T11:42:30;101559.60;;;14.25;61.97
54870;BME280;40756;-37.950;145.008;2024-02-23T11:45:01;101553.48;;;14.68;59.44
54870;BME280;40756;-37.950;145.008;2024-02-23T11:47:31;101554.14;;;14.20;59.12
54870;BME280;40756;-37.950;145.008;2024-02-23T11:50:00;101558.48;;;15.25;57.61
54870;BME280;40756;-37.950;145.008;2024-02-23T11:52:30;101558.54;;;15.08;57.47
54870;BME280;40756;-37.950;145.008;2024-02-23T11:55:00;101562.97;;;14.67;56.71
54870;BME280;40756;-37.950;145.008;2024-02-23T11:57:29;101565.86;;;15.37;54.63
54870;BME280;40756;-37.950;145.008;2024-02-23T12:00:00;101564.04;;;14.84;55.42
54870;BME280;40756;-37.950;145.008;2024-02-23T12:02:29;101561.21;;;14.34;57.05
54870;BME280;40756;-37.950;145.008;2024-02-23T12:04:59;101562.29;;;14.04;57.87
54870;BME280;40756;-37.950;145.008;2024-02-23T12:07:29;101561.16;;;15.25;56.70
54870;BME280;40756;-37.950;145.008;2024-02-23T12:09:59;101568.91;;;15.02;56.44
54870;BME280;40756;-37.950;145.008;2024-02-23T12:12:28;101565.73;;;15.52;54.62
54870;BME280;40756;-37.950;145.008;2024-02-23T12:14:58;101562.58;;;15.40;53.89
54870;BME280;40756;-37.950;145.008;2024-02-23T12:17:27;101555.69;;;15.50;52.84
54870;BME280;40756;-37.950;145.008;2024-02-23T12:20:00;101556.77;;;14.96;54.27
54870;BME280;40756;-37.950;145.008;2024-02-23T12:22:29;101554.56;;;14.69;54.34
54870;BME280;40756;-37.950;145.008;2024-02-23T12:24:59;101550.25;;;15.23;53.93
54870;BME280;40756;-37.950;145.008;2024-02-23T12:27:29;101548.54;;;15.78;52.98
54870;BME280;40756;-37.950;145.008;2024-02-23T12:29:59;101550.24;;;15.43;54.83
54870;BME280;40756;-37.950;145.008;2024-02-23T12:32:28;101544.99;;;15.45;54.60